sensor_id;sensor_type;location;lat;lon;timestamp;P1;durP1;ratioP1;P2;durP2;ratioP2
11422;SDS011;5768;51.476;7.210;2024-01-27T00:01:44;12.83;;;4.10;;
11422;SDS011;5768;51.476;7.210;2024-01-27T00:06:48;13.33;;;3.87;;
11422;SDS011;5768;51.476;7.210;2024-01-27T00:11:50;9.40;;;3.40;;
11422;SDS011;5768;51.476;7.210;2024-01-27T00:16:52;14.07;;;3.70;;
11422;SDS011;5768;51.476;7.210;2024-01-27T00:21:56;13.13;;;3.63;;
11422;SDS011;5768;51.476;7.210;2024-01-27T00:26:59;11.03;;;3.77;;
11422;SDS011;5768;51.476;7.210;2024-01-27T00:32:02;13.23;;;3.47;;
11422;SDS011;5768;51.476;7.210;2024-01-27T00:37:06;11.77;;;3.80;;
11422;SDS011;5768;51.476;7.210;2024-01-27T00:42:08;6.83;;;3.53;;
11422;SDS011;5768;51.476;7.210;2024-01-27T00:47:11;8.00;;;3.63;;
11422;SDS011;5768;51.476;7.210;2024-01-27T00:52:14;13.93;;;4.20;;
11422;SDS011;5768;51.476;7.210;2024-01-27T00:57:17;9.43;;;3.80;;
11422;SDS011;5768;51.476;7.210;2024-01-27T01:02:19;11.33;;;3.87;;
11422;SDS011;5768;51.476;7.210;2024-01-27T01:07:22;10.23;;;3.77;;
11422;SDS011;5768;51.476;7.210;2024-01-27T01:12:25;9.33;;;3.80;;
11422;SDS011;5768;51.476;7.210;2024-01-27T01:17:27;12.40;;;4.30;;
11422;SDS011;5768;51.476;7.210;2024-01-27T01:22:31;7.50;;;3.90;;
11422;SDS011;5768;51.476;7.210;2024-01-27T01:27:33;16.50;;;4.60;;
11422;SDS011;5768;51.476;7.210;2024-01-27T01:32:35;11.73;;;4.20;;
11422;SDS011;5768;51.476;7.210;2024-01-27T01:37:39;13.00;;;4.40;;
11422;SDS011;5768;51.476;7.210;2024-01-27T01:42:41;11.63;;;4.50;;
11422;SDS011;5768;51.476;7.210;2024-01-27T01:47:43;12.90;;;4.13;;
11422;SDS011;5768;51.476;7.210;2024-01-27T01:52:47;12.80;;;4.20;;
11422;SDS011;5768;51.476;7.210;2024-01-27T01:57:50;16.40;;;4.50;;
11422;SDS011;5768;51.476;7.210;2024-01-27T02:02:53;15.60;;;4.27;;
11422;SDS011;5768;51.476;7.210;2024-01-27T02:07:56;11.37;;;3.80;;
11422;SDS011;5768;51.476;7.210;2024-01-27T02:13:00;11.10;;;4.27;;
11422;SDS011;5768;51.476;7.210;2024-01-27T02:18:02;12.80;;;3.93;;
11422;SDS011;5768;51.476;7.210;2024-01-27T02:23:07;13.17;;;4.20;;
11422;SDS011;5768;51.476;7.210;2024-01-27T02:28:11;13.07;;;4.20;;
11422;SDS011;5768;51.476;7.210;2024-01-27T02:33:14;13.43;;;4.20;;
11422;SDS011;5768;51.476;7.210;2024-01-27T02:38:16;14.37;;;4.40;;
11422;SDS011;5768;51.476;7.210;2024-01-27T02:43:20;12.77;;;4.50;;
11422;SDS011;5768;51.476;7.210;2024-01-27T02:48:22;15.57;;;3.93;;
11422;SDS011;5768;51.476;7.210;2024-01-27T02:53:24;11.93;;;4.17;;
11422;SDS011;5768;51.476;7.210;2024-01-27T02:58:27;10.73;;;4.33;;
11422;SDS011;5768;51.476;7.210;2024-01-27T03:03:29;14.47;;;4.63;;
11422;SDS011;5768;51.476;7.210;2024-01-27T03:08:32;12.60;;;4.20;;
11422;SDS011;5768;51.476;7.210;2024-01-27T03:13:36;12.37;;;4.60;;
11422;SDS011;5768;51.476;7.210;2024-01-27T03:18:45;14.03;;;5.33;;
11422;SDS011;5768;51.476;7.210;2024-01-27T03:23:47;11.90;;;4.87;;
11422;SDS011;5768;51.476;7.210;2024-01-27T03:28:51;10.20;;;4.20;;
11422;SDS011;5768;51.476;7.210;2024-01-27T03:33:53;11.83;;;4.57;;
11422;SDS011;5768;51.476;7.210;2024-01-27T03:38:57;13.77;;;5.03;;
11422;SDS011;5768;51.476;7.210;2024-01-27T03:44:02;14.10;;;5.30;;
11422;SDS011;5768;51.476;7.210;2024-01-27T03:49:05;16.33;;;5.20;;
11422;SDS011;5768;51.476;7.210;2024-01-27T03:54:07;13.70;;;4.50;;
11422;SDS011;5768;51.476;7.210;2024-01-27T03:59:10;10.30;;;4.53;;
11422;SDS011;5768;51.476;7.210;2024-01-27T04:04:12;13.47;;;4.57;;
11422;SDS011;5768;51.476;7.210;2024-01-27T04:09:18;8.77;;;4.50;;
11422;SDS011;5768;51.476;7.210;2024-01-27T04:14:22;14.53;;;4.90;;
11422;SDS011;5768;51.476;7.210;2024-01-27T04:19:24;12.03;;;4.80;;
11422;SDS011;5768;51.476;7.210;2024-01-27T04:24:26;13.90;;;5.20;;
11422;SDS011;5768;51.476;7.210;2024-01-27T04:29:32;13.13;;;4.63;;
11422;SDS011;5768;51.476;7.210;2024-01-27T04:34:34;10.90;;;4.63;;
11422;SDS011;5768;51.476;7.210;2024-01-27T04:39:37;9.53;;;5.10;;
11422;SDS011;5768;51.476;7.210;2024-01-27T04:44:41;14.07;;;5.13;;
11422;SDS011;5768;51.476;7.210;2024-01-27T04:49:43;13.10;;;4.77;;
11422;SDS011;5768;51.476;7.210;2024-01-27T04:54:45;10.63;;;4.90;;
11422;SDS011;5768;51.476;7.210;2024-01-27T04:59:49;9.60;;;4.30;;
11422;SDS011;5768;51.476;7.210;2024-01-27T05:04:51;13.60;;;5.50;;
11422;SDS011;5768;51.476;7.210;2024-01-27T05:09:53;13.33;;;4.90;;
11422;SDS011;5768;51.476;7.210;2024-01-27T05:14:57;13.30;;;5.23;;
11422;SDS011;5768;51.476;7.210;2024-01-27T05:20:00;11.63;;;5.47;;
11422;SDS011;5768;51.476;7.210;2024-01-27T05:25:04;9.87;;;4.00;;
11422;SDS011;5768;51.476;7.210;2024-01-27T05:30:12;12.50;;;5.50;;
11422;SDS011;5768;51.476;7.210;2024-01-27T05:35:14;14.80;;;5.33;;
11422;SDS011;5768;51.476;7.210;2024-01-27T05:40:17;10.20;;;5.17;;
11422;SDS011;5768;51.476;7.210;2024-01-27T05:45:20;11.00;;;5.50;;
11422;SDS011;5768;51.476;7.210;2024-01-27T05:50:23;16.23;;;5.50;;
11422;SDS011;5768;51.476;7.210;2024-01-27T05:55:25;13.43;;;4.83;;
11422;SDS011;5768;51.476;7.210;2024-01-27T06:00:29;12.10;;;5.20;;
11422;SDS011;5768;51.476;7.210;2024-01-27T06:05:31;21.97;;;10.33;;
11422;SDS011;5768;51.476;7.210;2024-01-27T06:10:33;11.00;;;4.70;;
11422;SDS011;5768;51.476;7.210;2024-01-27T06:15:38;6.93;;;4.07;;
11422;SDS011;5768;51.476;7.210;2024-01-27T06:20:40;12.53;;;4.97;;
11422;SDS011;5768;51.476;7.210;2024-01-27T06:25:42;12.67;;;4.57;;
11422;SDS011;5768;51.476;7.210;2024-01-27T06:30:46;14.73;;;4.90;;
11422;SDS011;5768;51.476;7.210;2024-01-27T06:35:49;17.30;;;10.43;;
11422;SDS011;5768;51.476;7.210;2024-01-27T06:40:51;11.00;;;5.07;;
11422;SDS011;5768;51.476;7.210;2024-01-27T06:45:54;14.00;;;4.47;;
11422;SDS011;5768;51.476;7.210;2024-01-27T06:51:00;13.03;;;4.80;;
11422;SDS011;5768;51.476;7.210;2024-01-27T06:56:02;25.80;;;17.70;;
11422;SDS011;5768;51.476;7.210;2024-01-27T07:01:08;14.23;;;5.50;;
11422;SDS011;5768;51.476;7.210;2024-01-27T07:06:10;13.90;;;5.00;;
11422;SDS011;5768;51.476;7.210;2024-01-27T07:11:12;10.93;;;5.40;;
11422;SDS011;5768;51.476;7.210;2024-01-27T07:16:16;14.27;;;5.23;;
11422;SDS011;5768;51.476;7.210;2024-01-27T07:21:18;13.83;;;5.57;;
11422;SDS011;5768;51.476;7.210;2024-01-27T07:26:21;13.17;;;5.23;;
11422;SDS011;5768;51.476;7.210;2024-01-27T07:31:25;14.67;;;5.47;;
11422;SDS011;5768;51.476;7.210;2024-01-27T07:36:27;12.20;;;4.60;;
11422;SDS011;5768;51.476;7.210;2024-01-27T07:41:32;13.87;;;5.07;;
11422;SDS011;5768;51.476;7.210;2024-01-27T07:46:36;15.57;;;5.43;;
11422;SDS011;5768;51.476;7.210;2024-01-27T07:51:38;12.50;;;5.37;;
11422;SDS011;5768;51.476;7.210;2024-01-27T07:56:43;9.33;;;5.10;;
11422;SDS011;5768;51.476;7.210;2024-01-27T08:01:47;14.23;;;4.83;;
11422;SDS011;5768;51.476;7.210;2024-01-27T08:06:50;10.57;;;4.43;;
11422;SDS011;5768;51.476;7.210;2024-01-27T08:11:55;17.73;;;8.47;;
11422;SDS011;5768;51.476;7.210;2024-01-27T08:16:59;17.77;;;6.73;;
11422;SDS011;5768;51.476;7.210;2024-01-27T08:22:01;13.57;;;6.30;;
11422;SDS011;5768;51.476;7.210;2024-01-27T08:27:03;12.63;;;5.83;;
11422;SDS011;5768;51.476;7.210;2024-01-27T08:32:08;11.03;;;4.43;;
11422;SDS011;5768;51.476;7.210;2024-01-27T08:37:14;12.83;;;5.13;;
11422;SDS011;5768;51.476;7.210;2024-01-27T08:42:18;12.37;;;4.93;;
11422;SDS011;5768;51.476;7.210;2024-01-27T08:47:22;13.10;;;5.70;;
11422;SDS011;5768;51.476;7.210;2024-01-27T08:52:24;10.40;;;4.90;;
11422;SDS011;5768;51.476;7.210;2024-01-27T08:57:27;11.80;;;4.30;;
11422;SDS011;5768;51.476;7.210;2024-01-27T09:02:30;10.20;;;4.70;;
11422;SDS011;5768;51.476;7.210;2024-01-27T09:07:33;8.93;;;3.60;;
11422;SDS011;5768;51.476;7.210;2024-01-27T09:12:36;9.40;;;3.90;;
11422;SDS011;5768;51.476;7.210;2024-01-27T09:17:40;9.93;;;4.27;;
11422;SDS011;5768;51.476;7.210;2024-01-27T09:22:43;10.97;;;4.90;;
11422;SDS011;5768;51.476;7.210;2024-01-27T09:27:52;10.93;;;4.43;;
11422;SDS011;5768;51.476;7.210;2024-01-27T09:32:56;12.03;;;5.10;;
11422;SDS011;5768;51.476;7.210;2024-01-27T09:37:58;12.60;;;6.07;;
11422;SDS011;5768;51.476;7.210;2024-01-27T09:43:01;12.23;;;4.10;;
11422;SDS011;5768;51.476;7.210;2024-01-27T09:48:05;11.47;;;3.73;;
11422;SDS011;5768;51.476;7.210;2024-01-27T09:53:12;12.00;;;4.10;;
11422;SDS011;5768;51.476;7.210;2024-01-27T09:58:15;9.37;;;3.53;;
11422;SDS011;5768;51.476;7.210;2024-01-27T10:03:19;10.77;;;3.77;;
11422;SDS011;5768;51.476;7.210;2024-01-27T10:08:22;11.63;;;4.17;;
11422;SDS011;5768;51.476;7.210;2024-01-27T10:13:25;9.93;;;3.40;;
11422;SDS011;5768;51.476;7.210;2024-01-27T10:18:29;9.40;;;3.67;;
11422;SDS011;5768;51.476;7.210;2024-01-27T10:23:38;9.80;;;3.80;;
11422;SDS011;5768;51.476;7.210;2024-01-27T10:28:40;11.27;;;3.67;;
11422;SDS011;5768;51.476;7.210;2024-01-27T10:33:52;11.90;;;4.10;;
11422;SDS011;5768;51.476;7.210;2024-01-27T10:38:55;10.93;;;3.57;;
11422;SDS011;5768;51.476;7.210;2024-01-27T10:43:57;9.00;;;3.30;;
11422;SDS011;5768;51.476;7.210;2024-01-27T10:49:02;11.23;;;3.93;;
11422;SDS011;5768;51.476;7.210;2024-01-27T10:54:07;10.97;;;3.73;;
11422;SDS011;5768;51.476;7.210;2024-01-27T10:59:15;10.53;;;3.83;;
11422;SDS011;5768;51.476;7.210;2024-01-27T11:04:24;8.40;;;3.33;;
11422;SDS011;5768;51.476;7.210;2024-01-27T11:09:27;8.17;;;3.30;;
11422;SDS011;5768;51.476;7.210;2024-01-27T11:14:32;9.37;;;2.90;;
11422;SDS011;5768;51.476;7.210;2024-01-27T11:19:35;8.07;;;2.70;;
11422;SDS011;5768;51.476;7.210;2024-01-27T11:24:41;6.90;;;2.67;;
11422;SDS011;5768;51.476;7.210;2024-01-27T11:29:46;6.67;;;2.70;;
11422;SDS011;5768;51.476;7.210;2024-01-27T11:34:51;6.07;;;2.30;;
11422;SDS011;5768;51.476;7.210;2024-01-27T11:40:02;7.27;;;2.87;;
11422;SDS011;5768;51.476;7.210;2024-01-27T11:45:07;6.30;;;2.37;;
11422;SDS011;5768;51.476;7.210;2024-01-27T11:50:11;5.13;;;2.00;;
11422;SDS011;5768;51.476;7.210;2024-01-27T11:55:14;6.03;;;2.97;;
11422;SDS011;5768;51.476;7.210;2024-01-27T12:00:19;5.77;;;2.10;;
11422;SDS011;5768;51.476;7.210;2024-01-27T12:05:22;8.93;;;2.70;;
11422;SDS011;5768;51.476;7.210;2024-01-27T12:10:24;5.83;;;2.60;;
11422;SDS011;5768;51.476;7.210;2024-01-27T12:15:27;7.17;;;2.43;;
11422;SDS011;5768;51.476;7.210;2024-01-27T12:20:31;9.50;;;3.20;;
11422;SDS011;5768;51.476;7.210;2024-01-27T12:25:33;8.73;;;3.07;;
11422;SDS011;5768;51.476;7.210;2024-01-27T12:30:36;8.03;;;3.07;;
11422;SDS011;5768;51.476;7.210;2024-01-27T12:35:40;5.97;;;2.67;;
11422;SDS011;5768;51.476;7.210;2024-01-27T12:40:42;10.63;;;3.50;;
11422;SDS011;5768;51.476;7.210;2024-01-27T12:45:44;9.00;;;2.80;;
11422;SDS011;5768;51.476;7.210;2024-01-27T12:50:48;9.30;;;2.97;;
11422;SDS011;5768;51.476;7.210;2024-01-27T12:55:50;9.07;;;3.47;;
11422;SDS011;5768;51.476;7.210;2024-01-27T13:00:52;8.50;;;3.40;;
11422;SDS011;5768;51.476;7.210;2024-01-27T13:05:56;10.75;;;3.47;;
11422;SDS011;5768;51.476;7.210;2024-01-27T13:10:59;7.88;;;3.38;;
11422;SDS011;5768;51.476;7.210;2024-01-27T13:16:01;8.48;;;3.15;;
11422;SDS011;5768;51.476;7.210;2024-01-27T13:21:05;6.82;;;2.33;;
11422;SDS011;5768;51.476;7.210;2024-01-27T13:26:08;8.77;;;3.47;;
11422;SDS011;5768;51.476;7.210;2024-01-27T13:31:11;7.75;;;3.40;;
11422;SDS011;5768;51.476;7.210;2024-01-27T13:36:14;10.35;;;3.33;;
11422;SDS011;5768;51.476;7.210;2024-01-27T13:41:17;10.13;;;3.78;;
11422;SDS011;5768;51.476;7.210;2024-01-27T13:46:19;9.05;;;3.28;;
11422;SDS011;5768;51.476;7.210;2024-01-27T13:51:23;8.23;;;3.38;;
11422;SDS011;5768;51.476;7.210;2024-01-27T13:56:25;7.00;;;2.97;;
11422;SDS011;5768;51.476;7.210;2024-01-27T14:01:29;7.70;;;3.00;;
11422;SDS011;5768;51.476;7.210;2024-01-27T14:06:33;8.98;;;3.28;;
11422;SDS011;5768;51.476;7.210;2024-01-27T14:11:36;7.63;;;3.22;;
11422;SDS011;5768;51.476;7.210;2024-01-27T14:16:38;12.15;;;2.88;;
11422;SDS011;5768;51.476;7.210;2024-01-27T14:21:42;8.48;;;3.28;;
11422;SDS011;5768;51.476;7.210;2024-01-27T14:26:45;8.90;;;3.45;;
11422;SDS011;5768;51.476;7.210;2024-01-27T14:31:47;10.88;;;3.13;;
11422;SDS011;5768;51.476;7.210;2024-01-27T14:36:51;7.88;;;3.13;;
11422;SDS011;5768;51.476;7.210;2024-01-27T14:41:55;5.38;;;3.10;;
11422;SDS011;5768;51.476;7.210;2024-01-27T14:46:57;10.80;;;3.38;;
11422;SDS011;5768;51.476;7.210;2024-01-27T14:52:01;8.02;;;3.00;;
11422;SDS011;5768;51.476;7.210;2024-01-27T14:57:04;7.80;;;3.47;;
11422;SDS011;5768;51.476;7.210;2024-01-27T15:02:09;9.32;;;3.58;;
11422;SDS011;5768;51.476;7.210;2024-01-27T15:07:12;8.82;;;3.15;;
11422;SDS011;5768;51.476;7.210;2024-01-27T15:12:16;9.50;;;4.40;;
11422;SDS011;5768;51.476;7.210;2024-01-27T15:17:18;9.25;;;3.22;;
11422;SDS011;5768;51.476;7.210;2024-01-27T15:22:22;7.18;;;2.53;;
11422;SDS011;5768;51.476;7.210;2024-01-27T15:27:24;10.93;;;4.18;;
11422;SDS011;5768;51.476;7.210;2024-01-27T15:32:26;11.73;;;3.50;;
11422;SDS011;5768;51.476;7.210;2024-01-27T15:37:30;9.15;;;3.35;;
11422;SDS011;5768;51.476;7.210;2024-01-27T15:42:32;6.70;;;3.25;;
11422;SDS011;5768;51.476;7.210;2024-01-27T15:47:34;10.05;;;3.15;;
11422;SDS011;5768;51.476;7.210;2024-01-27T15:52:37;11.75;;;4.13;;
11422;SDS011;5768;51.476;7.210;2024-01-27T15:57:39;9.00;;;3.28;;
11422;SDS011;5768;51.476;7.210;2024-01-27T16:02:42;8.25;;;3.50;;
11422;SDS011;5768;51.476;7.210;2024-01-27T16:07:45;10.73;;;3.75;;
11422;SDS011;5768;51.476;7.210;2024-01-27T16:12:47;8.45;;;3.83;;
11422;SDS011;5768;51.476;7.210;2024-01-27T16:17:49;7.82;;;3.45;;
11422;SDS011;5768;51.476;7.210;2024-01-27T16:22:53;10.57;;;4.03;;
11422;SDS011;5768;51.476;7.210;2024-01-27T16:27:55;8.98;;;3.65;;
11422;SDS011;5768;51.476;7.210;2024-01-27T16:32:59;9.65;;;4.00;;
11422;SDS011;5768;51.476;7.210;2024-01-27T16:38:06;12.10;;;4.20;;
11422;SDS011;5768;51.476;7.210;2024-01-27T16:43:08;10.43;;;4.47;;
11422;SDS011;5768;51.476;7.210;2024-01-27T16:48:11;13.38;;;4.55;;
11422;SDS011;5768;51.476;7.210;2024-01-27T16:53:15;9.60;;;4.32;;
11422;SDS011;5768;51.476;7.210;2024-01-27T16:58:17;9.05;;;4.60;;
11422;SDS011;5768;51.476;7.210;2024-01-27T17:03:20;10.00;;;4.72;;
11422;SDS011;5768;51.476;7.210;2024-01-27T17:08:23;12.57;;;5.90;;
11422;SDS011;5768;51.476;7.210;2024-01-27T17:13:26;10.00;;;3.90;;
11422;SDS011;5768;51.476;7.210;2024-01-27T17:18:29;12.73;;;4.83;;
11422;SDS011;5768;51.476;7.210;2024-01-27T17:23:33;14.90;;;6.07;;
11422;SDS011;5768;51.476;7.210;2024-01-27T17:28:36;12.87;;;5.90;;
11422;SDS011;5768;51.476;7.210;2024-01-27T17:33:39;19.47;;;9.43;;
11422;SDS011;5768;51.476;7.210;2024-01-27T17:38:43;13.77;;;6.57;;
11422;SDS011;5768;51.476;7.210;2024-01-27T17:43:45;11.10;;;5.57;;
11422;SDS011;5768;51.476;7.210;2024-01-27T17:48:48;10.43;;;5.23;;
11422;SDS011;5768;51.476;7.210;2024-01-27T17:53:51;10.80;;;5.50;;
11422;SDS011;5768;51.476;7.210;2024-01-27T17:58:54;11.20;;;5.57;;
11422;SDS011;5768;51.476;7.210;2024-01-27T18:03:56;9.90;;;5.33;;
11422;SDS011;5768;51.476;7.210;2024-01-27T18:09:00;13.30;;;5.70;;
11422;SDS011;5768;51.476;7.210;2024-01-27T18:14:04;13.83;;;6.80;;
11422;SDS011;5768;51.476;7.210;2024-01-27T18:19:06;14.50;;;6.63;;
11422;SDS011;5768;51.476;7.210;2024-01-27T18:24:10;14.80;;;8.07;;
11422;SDS011;5768;51.476;7.210;2024-01-27T18:29:12;16.07;;;7.20;;
11422;SDS011;5768;51.476;7.210;2024-01-27T18:34:14;16.47;;;7.27;;
11422;SDS011;5768;51.476;7.210;2024-01-27T18:39:19;12.80;;;6.80;;
11422;SDS011;5768;51.476;7.210;2024-01-27T18:44:21;12.87;;;6.50;;
11422;SDS011;5768;51.476;7.210;2024-01-27T18:49:23;12.53;;;6.87;;
11422;SDS011;5768;51.476;7.210;2024-01-27T18:54:29;13.90;;;7.17;;
11422;SDS011;5768;51.476;7.210;2024-01-27T18:59:31;10.70;;;6.60;;
11422;SDS011;5768;51.476;7.210;2024-01-27T19:04:33;13.10;;;8.17;;
11422;SDS011;5768;51.476;7.210;2024-01-27T19:09:37;13.13;;;7.00;;
11422;SDS011;5768;51.476;7.210;2024-01-27T19:14:39;13.70;;;7.43;;
11422;SDS011;5768;51.476;7.210;2024-01-27T19:19:41;16.30;;;8.33;;
11422;SDS011;5768;51.476;7.210;2024-01-27T19:24:45;14.40;;;7.70;;
11422;SDS011;5768;51.476;7.210;2024-01-27T19:29:47;13.50;;;8.20;;
11422;SDS011;5768;51.476;7.210;2024-01-27T19:34:50;16.23;;;9.70;;
11422;SDS011;5768;51.476;7.210;2024-01-27T19:39:55;16.33;;;8.13;;
11422;SDS011;5768;51.476;7.210;2024-01-27T19:44:57;11.67;;;7.07;;
11422;SDS011;5768;51.476;7.210;2024-01-27T19:49:59;13.90;;;7.67;;
11422;SDS011;5768;51.476;7.210;2024-01-27T19:55:04;16.17;;;8.13;;
11422;SDS011;5768;51.476;7.210;2024-01-27T20:00:10;14.13;;;7.70;;
11422;SDS011;5768;51.476;7.210;2024-01-27T20:05:14;15.57;;;8.97;;
11422;SDS011;5768;51.476;7.210;2024-01-27T20:10:18;14.77;;;8.10;;
11422;SDS011;5768;51.476;7.210;2024-01-27T20:15:20;13.17;;;7.77;;
11422;SDS011;5768;51.476;7.210;2024-01-27T20:20:22;13.80;;;6.90;;
11422;SDS011;5768;51.476;7.210;2024-01-27T20:25:26;15.63;;;6.70;;
11422;SDS011;5768;51.476;7.210;2024-01-27T20:30:31;10.57;;;6.70;;
11422;SDS011;5768;51.476;7.210;2024-01-27T20:35:34;11.53;;;6.43;;
11422;SDS011;5768;51.476;7.210;2024-01-27T20:40:37;9.90;;;6.17;;
11422;SDS011;5768;51.476;7.210;2024-01-27T20:45:39;12.33;;;6.03;;
11422;SDS011;5768;51.476;7.210;2024-01-27T20:50:42;14.00;;;5.87;;
11422;SDS011;5768;51.476;7.210;2024-01-27T20:55:45;12.57;;;6.07;;
11422;SDS011;5768;51.476;7.210;2024-01-27T21:00:51;12.97;;;6.13;;
11422;SDS011;5768;51.476;7.210;2024-01-27T21:05:53;12.13;;;6.00;;
11422;SDS011;5768;51.476;7.210;2024-01-27T21:10:57;10.97;;;5.63;;
11422;SDS011;5768;51.476;7.210;2024-01-27T21:16:03;12.03;;;6.13;;
11422;SDS011;5768;51.476;7.210;2024-01-27T21:21:06;10.73;;;5.70;;
11422;SDS011;5768;51.476;7.210;2024-01-27T21:26:10;15.67;;;5.87;;
11422;SDS011;5768;51.476;7.210;2024-01-27T21:31:13;10.13;;;5.40;;
11422;SDS011;5768;51.476;7.210;2024-01-27T21:36:15;9.70;;;5.63;;
11422;SDS011;5768;51.476;7.210;2024-01-27T21:41:19;11.63;;;5.73;;
11422;SDS011;5768;51.476;7.210;2024-01-27T21:46:21;7.73;;;5.40;;
11422;SDS011;5768;51.476;7.210;2024-01-27T21:51:23;11.43;;;5.60;;
11422;SDS011;5768;51.476;7.210;2024-01-27T21:56:27;10.07;;;5.40;;
11422;SDS011;5768;51.476;7.210;2024-01-27T22:01:29;12.13;;;5.93;;
11422;SDS011;5768;51.476;7.210;2024-01-27T22:06:31;11.93;;;5.97;;
11422;SDS011;5768;51.476;7.210;2024-01-27T22:11:34;11.73;;;5.53;;
11422;SDS011;5768;51.476;7.210;2024-01-27T22:16:37;13.60;;;6.40;;
11422;SDS011;5768;51.476;7.210;2024-01-27T22:21:39;10.30;;;5.83;;
11422;SDS011;5768;51.476;7.210;2024-01-27T22:26:44;7.37;;;4.83;;
11422;SDS011;5768;51.476;7.210;2024-01-27T22:31:47;9.17;;;4.93;;
11422;SDS011;5768;51.476;7.210;2024-01-27T22:36:50;9.83;;;4.70;;
11422;SDS011;5768;51.476;7.210;2024-01-27T22:41:54;9.23;;;4.70;;
11422;SDS011;5768;51.476;7.210;2024-01-27T22:46:57;9.83;;;3.87;;
11422;SDS011;5768;51.476;7.210;2024-01-27T22:51:59;9.00;;;3.73;;
11422;SDS011;5768;51.476;7.210;2024-01-27T22:57:02;10.17;;;3.90;;
11422;SDS011;5768;51.476;7.210;2024-01-27T23:02:05;7.63;;;3.57;;
11422;SDS011;5768;51.476;7.210;2024-01-27T23:07:07;8.83;;;4.27;;
11422;SDS011;5768;51.476;7.210;2024-01-27T23:12:13;9.13;;;4.20;;
11422;SDS011;5768;51.476;7.210;2024-01-27T23:17:16;8.53;;;3.73;;
11422;SDS011;5768;51.476;7.210;2024-01-27T23:22:18;8.93;;;3.77;;
11422;SDS011;5768;51.476;7.210;2024-01-27T23:27:22;11.17;;;4.40;;
11422;SDS011;5768;51.476;7.210;2024-01-27T23:32:24;9.63;;;4.00;;
11422;SDS011;5768;51.476;7.210;2024-01-27T23:37:26;7.33;;;3.60;;
11422;SDS011;5768;51.476;7.210;2024-01-27T23:42:30;6.20;;;3.03;;
11422;SDS011;5768;51.476;7.210;2024-01-27T23:47:32;7.07;;;2.97;;
11422;SDS011;5768;51.476;7.210;2024-01-27T23:52:34;6.07;;;2.90;;
11422;SDS011;5768;51.476;7.210;2024-01-27T23:57:39;9.50;;;2.80;;
